createdAt,value
2022-12-08T00:00:54.891Z,-3.10
2022-12-08T00:03:25.415Z,-3.07
2022-12-08T00:06:15.461Z,-3.04
2022-12-08T00:09:05.679Z,-3.01
2022-12-08T00:11:35.808Z,-3.02
2022-12-08T00:14:06.085Z,-3.04
2022-12-08T00:16:36.350Z,-3.06
2022-12-08T00:19:06.912Z,-3.08
2022-12-08T00:21:36.959Z,-3.11
2022-12-08T00:24:07.377Z,-3.13
2022-12-08T00:26:38.727Z,-3.15
2022-12-08T00:29:14.452Z,-3.21
2022-12-08T00:31:48.410Z,-3.26
2022-12-08T00:34:18.944Z,-3.29
2022-12-08T00:36:49.353Z,-3.31
2022-12-08T00:39:19.795Z,-3.33
2022-12-08T00:42:09.800Z,-3.37
2022-12-08T00:44:40.774Z,-3.40
2022-12-08T00:47:11.013Z,-3.38
2022-12-08T00:49:41.223Z,-3.36
2022-12-08T00:52:13.077Z,-3.37
2022-12-08T00:54:43.019Z,-3.40
2022-12-08T00:57:14.693Z,-3.42
2022-12-08T00:59:44.730Z,-3.39
2022-12-08T01:02:15.275Z,-3.39
2022-12-08T01:04:45.708Z,-3.41
2022-12-08T01:07:14.714Z,-3.41
2022-12-08T01:09:45.966Z,-3.42
2022-12-08T01:12:15.783Z,-3.46
2022-12-08T01:14:45.957Z,-3.49
2022-12-08T01:17:15.730Z,-3.49
2022-12-08T01:19:46.623Z,-3.49
2022-12-08T01:22:16.943Z,-3.48
2022-12-08T01:24:47.435Z,-3.48
2022-12-08T01:27:17.277Z,-3.48
2022-12-08T01:29:48.151Z,-3.48
2022-12-08T01:32:18.044Z,-3.49
2022-12-08T01:34:48.517Z,-3.51
2022-12-08T01:37:18.920Z,-3.52
2022-12-08T01:39:49.008Z,-3.53
2022-12-08T01:42:23.662Z,-3.54
2022-12-08T01:45:04.727Z,-3.58
2022-12-08T01:47:45.913Z,-3.64
2022-12-08T01:50:18.516Z,-3.69
2022-12-08T01:52:56.008Z,-3.75
2022-12-08T01:55:29.514Z,-3.77
2022-12-08T01:58:12.952Z,-3.86
2022-12-08T02:00:43.900Z,-3.87
2022-12-08T02:03:20.613Z,-3.88
2022-12-08T02:05:53.290Z,-3.88
2022-12-08T02:08:24.695Z,-3.88
2022-12-08T02:10:55.192Z,-3.85
2022-12-08T02:13:26.359Z,-3.84
2022-12-08T02:16:19.364Z,-3.80
2022-12-08T02:19:29.126Z,-3.77
2022-12-08T02:22:11.689Z,-3.77
2022-12-08T02:24:46.626Z,-3.78
2022-12-08T02:27:26.626Z,-3.85
2022-12-08T02:30:11.875Z,-3.96
2022-12-08T02:32:52.080Z,-4.06
2022-12-08T02:35:40.908Z,-4.09
2022-12-08T02:38:24.019Z,-4.10
2022-12-08T02:41:17.270Z,-4.09
2022-12-08T02:44:17.004Z,-4.08
2022-12-08T02:46:59.968Z,-4.07
2022-12-08T02:49:34.595Z,-4.06
2022-12-08T02:52:13.933Z,-4.07
2022-12-08T02:55:06.742Z,-4.06
2022-12-08T02:57:46.124Z,-4.05
2022-12-08T03:00:19.601Z,-4.03
2022-12-08T03:03:27.187Z,-3.98
2022-12-08T03:06:22.049Z,-3.95
2022-12-08T03:08:55.895Z,-3.97
2022-12-08T03:11:33.820Z,-3.95
2022-12-08T03:14:07.582Z,-3.92
2022-12-08T03:16:41.931Z,-3.93
2022-12-08T03:19:38.248Z,-3.93
2022-12-08T03:22:11.394Z,-3.97
2022-12-08T03:24:44.622Z,-3.97
2022-12-08T03:27:25.872Z,-3.94
2022-12-08T03:29:58.103Z,-3.96
2022-12-08T03:32:34.547Z,-3.99
2022-12-08T03:35:11.785Z,-3.98
2022-12-08T03:37:43.371Z,-3.96
2022-12-08T03:40:17.320Z,-3.93
2022-12-08T03:42:46.976Z,-3.90
2022-12-08T03:45:17.148Z,-3.88
2022-12-08T03:47:47.446Z,-3.88
2022-12-08T03:50:17.602Z,-3.88
2022-12-08T03:52:47.805Z,-3.92
2022-12-08T03:55:17.953Z,-3.96
2022-12-08T03:57:47.717Z,-3.98
2022-12-08T04:00:18.156Z,-4.00
2022-12-08T04:02:48.248Z,-4.01
2022-12-08T04:05:18.422Z,-4.02
2022-12-08T04:07:48.653Z,-4.04
2022-12-08T04:10:18.772Z,-4.05
2022-12-08T04:12:48.808Z,-4.03
2022-12-08T04:15:17.664Z,-4.03
2022-12-08T04:17:48.686Z,-4.04
2022-12-08T04:20:18.752Z,-4.03
2022-12-08T04:22:47.859Z,-4.02
2022-12-08T04:25:17.951Z,-4.00
2022-12-08T04:27:48.004Z,-3.98
2022-12-08T04:30:18.203Z,-3.97
2022-12-08T04:32:48.342Z,-3.99
2022-12-08T04:35:18.404Z,-4.01
2022-12-08T04:37:48.682Z,-4.04
2022-12-08T04:40:18.996Z,-4.06
2022-12-08T04:42:49.010Z,-4.08
2022-12-08T04:45:19.210Z,-4.10
2022-12-08T04:47:48.120Z,-4.11
2022-12-08T04:50:19.736Z,-4.13
2022-12-08T04:52:50.060Z,-4.14
2022-12-08T04:55:20.120Z,-4.14
2022-12-08T04:57:49.858Z,-4.17
2022-12-08T05:00:19.931Z,-4.22
2022-12-08T05:02:50.087Z,-4.23
2022-12-08T05:05:20.177Z,-4.20
2022-12-08T05:07:50.419Z,-4.22
2022-12-08T05:10:19.415Z,-4.25
2022-12-08T05:12:49.456Z,-4.26
2022-12-08T05:15:19.613Z,-4.27
2022-12-08T05:17:49.725Z,-4.26
2022-12-08T05:20:18.769Z,-4.26
2022-12-08T05:22:48.918Z,-4.26
2022-12-08T05:25:18.002Z,-4.24
2022-12-08T05:27:48.024Z,-4.23
2022-12-08T05:30:18.531Z,-4.20
2022-12-08T05:32:48.811Z,-4.19
2022-12-08T05:35:18.941Z,-4.20
2022-12-08T05:37:48.991Z,-4.19
2022-12-08T05:40:19.353Z,-4.18
2022-12-08T05:42:49.681Z,-4.16
2022-12-08T05:45:19.935Z,-4.15
2022-12-08T05:47:50.425Z,-4.15
2022-12-08T05:50:20.687Z,-4.15
2022-12-08T05:52:50.667Z,-4.12
2022-12-08T05:55:20.959Z,-4.08
2022-12-08T05:57:51.395Z,-4.06
2022-12-08T06:00:22.565Z,-4.05
2022-12-08T06:02:52.153Z,-4.02
2022-12-08T06:05:22.503Z,-3.98
2022-12-08T06:07:52.918Z,-3.95
2022-12-08T06:10:22.993Z,-3.93
2022-12-08T06:12:53.379Z,-3.91
2022-12-08T06:15:23.674Z,-3.88
2022-12-08T06:17:53.740Z,-3.88
2022-12-08T06:20:24.064Z,-3.86
2022-12-08T06:22:55.897Z,-3.84
2022-12-08T06:25:26.329Z,-3.81
2022-12-08T06:27:56.328Z,-3.77
2022-12-08T06:30:27.754Z,-3.72
2022-12-08T06:32:58.196Z,-3.70
2022-12-08T06:35:28.144Z,-3.66
2022-12-08T06:37:58.281Z,-3.60
2022-12-08T06:40:28.745Z,-3.56
2022-12-08T06:43:00.641Z,-3.50
2022-12-08T06:45:30.447Z,-3.44
2022-12-08T06:48:03.148Z,-3.38
2022-12-08T06:50:35.464Z,-3.32
2022-12-08T06:53:05.884Z,-3.30
2022-12-08T06:55:58.900Z,-3.26
2022-12-08T06:58:27.906Z,-3.21
2022-12-08T07:00:58.545Z,-3.13
2022-12-08T07:03:28.987Z,-3.06
2022-12-08T07:06:04.062Z,-2.97
2022-12-08T07:08:35.418Z,-2.85
2022-12-08T07:11:09.854Z,-2.76
2022-12-08T07:13:40.198Z,-2.73
2022-12-08T07:16:10.643Z,-2.70
2022-12-08T07:18:40.444Z,-2.64
2022-12-08T07:21:12.531Z,-2.60
2022-12-08T07:23:43.370Z,-2.55
2022-12-08T07:26:14.379Z,-2.50
2022-12-08T07:28:44.800Z,-2.45
2022-12-08T07:31:26.092Z,-2.39
2022-12-08T07:33:57.949Z,-2.31
2022-12-08T07:36:28.148Z,-2.23
2022-12-08T07:39:00.471Z,-2.15
2022-12-08T07:41:30.729Z,-2.06
2022-12-08T07:44:01.197Z,-2.00
2022-12-08T07:46:31.738Z,-1.92
2022-12-08T07:49:02.125Z,-1.82
2022-12-08T07:51:32.648Z,-1.70
2022-12-08T07:54:02.955Z,-1.59
2022-12-08T07:56:32.013Z,-1.48
2022-12-08T07:59:03.158Z,-1.37
2022-12-08T08:01:35.253Z,-1.27
2022-12-08T08:04:06.687Z,-1.19
2022-12-08T08:06:36.714Z,-1.09
2022-12-08T08:09:06.900Z,-0.96
2022-12-08T08:11:36.666Z,-0.84
2022-12-08T08:14:06.440Z,-0.75
2022-12-08T08:16:38.619Z,-0.63
2022-12-08T08:19:09.138Z,-0.49
2022-12-08T08:21:46.627Z,-0.38
2022-12-08T08:24:18.148Z,-0.25
2022-12-08T08:26:47.101Z,-0.15
2022-12-08T08:29:18.225Z,-0.05
2022-12-08T08:31:48.997Z,0.06
2022-12-08T08:34:19.420Z,0.14
2022-12-08T08:36:48.685Z,0.23
2022-12-08T08:39:19.276Z,0.31
2022-12-08T08:41:49.269Z,0.37
2022-12-08T08:44:20.021Z,0.42
2022-12-08T08:46:50.482Z,0.53
2022-12-08T08:49:21.032Z,0.67
2022-12-08T08:51:52.341Z,0.78
2022-12-08T08:54:22.794Z,0.90
2022-12-08T08:56:53.303Z,1.01
2022-12-08T08:59:23.503Z,1.11
2022-12-08T09:01:54.051Z,1.25
2022-12-08T09:04:24.726Z,1.40
2022-12-08T09:06:54.775Z,1.53
2022-12-08T09:09:24.858Z,1.62
2022-12-08T09:11:56.065Z,1.69
2022-12-08T09:14:26.306Z,1.82
2022-12-08T09:16:56.430Z,1.96
2022-12-08T09:19:26.586Z,2.20
2022-12-08T09:21:56.709Z,2.52
2022-12-08T09:24:27.160Z,2.73
2022-12-08T09:26:57.443Z,2.83
2022-12-08T09:29:31.079Z,2.89
2022-12-08T09:32:05.202Z,2.90
2022-12-08T09:34:35.905Z,2.88
2022-12-08T09:37:06.746Z,2.88
2022-12-08T09:39:36.838Z,2.89
2022-12-08T09:42:07.856Z,2.90
2022-12-08T09:44:41.594Z,2.95
2022-12-08T09:47:35.987Z,2.94
2022-12-08T09:50:32.095Z,2.92
2022-12-08T09:53:15.512Z,2.66
2022-12-08T09:56:06.621Z,2.56
2022-12-08T09:58:50.751Z,2.48
2022-12-08T10:01:23.390Z,2.50
2022-12-08T10:03:55.307Z,2.60
2022-12-08T10:06:32.237Z,2.70
2022-12-08T10:09:12.582Z,2.82
2022-12-08T10:12:01.313Z,2.95
2022-12-08T10:14:52.646Z,3.07
2022-12-08T10:17:28.324Z,3.16
2022-12-08T10:20:14.163Z,3.22
2022-12-08T10:22:47.032Z,3.20
2022-12-08T10:25:31.596Z,3.23
2022-12-08T10:28:01.762Z,3.33
2022-12-08T10:30:32.876Z,3.39
2022-12-08T10:33:03.352Z,3.41
2022-12-08T10:35:56.579Z,3.51
2022-12-08T10:38:34.580Z,3.71
2022-12-08T10:41:18.440Z,3.84
2022-12-08T10:43:58.565Z,3.90
2022-12-08T10:46:30.603Z,3.90
2022-12-08T10:49:06.352Z,3.87
2022-12-08T10:51:39.595Z,3.85
2022-12-08T10:54:33.564Z,3.85
2022-12-08T10:57:05.936Z,3.86
2022-12-08T10:59:36.363Z,3.87
2022-12-08T11:02:19.107Z,3.85
2022-12-08T11:05:01.404Z,3.79
2022-12-08T11:07:32.595Z,3.71
2022-12-08T11:10:03.493Z,3.63
2022-12-08T11:12:33.888Z,3.58
2022-12-08T11:15:05.755Z,3.57
2022-12-08T11:17:45.512Z,3.59
2022-12-08T11:20:16.618Z,3.61
2022-12-08T11:22:55.654Z,3.62
2022-12-08T11:25:27.523Z,3.63
2022-12-08T11:28:02.398Z,3.62
2022-12-08T11:30:39.579Z,3.62
2022-12-08T11:33:16.341Z,3.63
2022-12-08T11:35:54.625Z,3.64
2022-12-08T11:38:26.751Z,3.63
2022-12-08T11:41:15.545Z,3.60
2022-12-08T11:44:11.175Z,3.52
2022-12-08T11:47:02.983Z,3.42
2022-12-08T11:49:40.296Z,3.31
2022-12-08T11:52:25.200Z,3.21
2022-12-08T11:55:20.003Z,3.16
2022-12-08T11:57:52.278Z,3.14
2022-12-08T12:00:22.499Z,3.12
2022-12-08T12:03:05.133Z,3.12
2022-12-08T12:06:18.502Z,3.12
2022-12-08T12:09:38.947Z,3.08
2022-12-08T12:12:53.720Z,3.04
2022-12-08T12:15:43.188Z,3.02
2022-12-08T12:18:32.967Z,3.01
2022-12-08T12:21:11.963Z,2.98
2022-12-08T12:23:48.517Z,2.98
2022-12-08T12:26:39.291Z,2.99
2022-12-08T12:29:18.250Z,3.02
2022-12-08T12:32:02.573Z,3.08
2022-12-08T12:34:52.609Z,3.16
2022-12-08T12:37:37.433Z,3.21
2022-12-08T12:40:20.903Z,3.23
2022-12-08T12:42:56.474Z,3.24
2022-12-08T12:45:35.030Z,3.26
2022-12-08T12:48:06.003Z,3.25
2022-12-08T12:50:42.843Z,3.22
2022-12-08T12:53:19.471Z,3.22
2022-12-08T12:55:55.934Z,3.22
2022-12-08T12:58:31.873Z,3.23
2022-12-08T13:01:35.206Z,3.23
2022-12-08T13:04:08.254Z,3.22
2022-12-08T13:06:49.934Z,3.22
2022-12-08T13:09:37.372Z,3.23
2022-12-08T13:12:13.259Z,3.19
2022-12-08T13:14:51.522Z,3.15
2022-12-08T13:17:31.286Z,3.15
2022-12-08T13:20:05.783Z,3.15
2022-12-08T13:23:02.948Z,3.16
2022-12-08T13:25:48.410Z,3.13
2022-12-08T13:28:28.937Z,3.11
2022-12-08T13:31:01.278Z,3.12
2022-12-08T13:33:40.250Z,3.14
2022-12-08T13:36:27.288Z,3.15
2022-12-08T13:38:59.418Z,3.16
2022-12-08T13:41:53.988Z,3.17
2022-12-08T13:45:18.719Z,3.12
2022-12-08T13:47:59.579Z,3.06
2022-12-08T13:54:48.516Z,2.96
2022-12-08T13:57:02.398Z,2.95
2022-12-08T13:59:28.952Z,2.95
2022-12-08T14:02:35.512Z,2.94
2022-12-08T14:05:34.865Z,2.89
2022-12-08T14:07:57.642Z,2.85
2022-12-08T14:10:32.410Z,2.85
2022-12-08T14:13:07.175Z,2.87
2022-12-08T14:15:39.462Z,2.89
2022-12-08T14:18:28.117Z,2.90
2022-12-08T14:21:22.382Z,2.90
2022-12-08T14:23:54.163Z,2.93
2022-12-08T14:26:24.511Z,2.96
2022-12-08T14:29:36.667Z,3.00
2022-12-08T14:32:40.134Z,3.03
2022-12-08T14:35:10.872Z,3.05
2022-12-08T14:37:46.950Z,3.06
2022-12-08T14:40:23.026Z,3.05
2022-12-08T14:43:20.227Z,3.04
2022-12-08T14:45:53.726Z,3.03
2022-12-08T14:48:43.311Z,3.01
2022-12-08T14:51:27.920Z,2.98
2022-12-08T14:54:09.534Z,2.97
2022-12-08T14:56:50.832Z,2.98
2022-12-08T14:59:27.703Z,3.00
2022-12-08T15:02:26.466Z,3.01
2022-12-08T15:04:59.360Z,3.06
2022-12-08T15:07:52.212Z,3.10
2022-12-08T15:10:36.039Z,3.12
2022-12-08T15:13:12.540Z,3.13
2022-12-08T15:15:49.448Z,3.17
2022-12-08T15:18:29.952Z,3.21
2022-12-08T15:21:08.500Z,3.23
2022-12-08T15:23:50.709Z,3.26
2022-12-08T15:26:26.084Z,3.28
2022-12-08T15:28:56.548Z,3.30
2022-12-08T15:31:27.133Z,3.32
2022-12-08T15:33:57.453Z,3.33
2022-12-08T15:36:27.478Z,3.35
2022-12-08T15:38:57.565Z,3.37
2022-12-08T15:41:27.981Z,3.35
2022-12-08T15:43:58.435Z,3.34
2022-12-08T15:46:28.940Z,3.34
2022-12-08T15:48:59.115Z,3.35
2022-12-08T15:51:31.466Z,3.35
2022-12-08T15:54:01.534Z,3.36
2022-12-08T15:56:34.222Z,3.38
2022-12-08T15:59:03.652Z,3.37
2022-12-08T16:01:34.119Z,3.34
2022-12-08T16:07:21.312Z,3.27
2022-12-08T16:09:49.987Z,3.29
2022-12-08T16:13:34.052Z,3.31
2022-12-08T16:16:00.225Z,3.34
2022-12-08T16:18:32.453Z,3.36
2022-12-08T16:21:12.348Z,3.37
2022-12-08T16:23:53.594Z,3.39
2022-12-08T16:29:20.829Z,3.41
2022-12-08T16:31:52.215Z,3.40
2022-12-08T16:34:22.693Z,3.39
2022-12-08T16:36:52.800Z,3.39
2022-12-08T16:39:22.945Z,3.39
2022-12-08T16:42:13.036Z,3.41
2022-12-08T16:44:44.014Z,3.40
2022-12-08T16:47:14.797Z,3.40
2022-12-08T16:49:45.595Z,3.38
2022-12-08T16:52:18.129Z,3.35
2022-12-08T16:54:48.654Z,3.34
2022-12-08T16:57:19.491Z,3.35
2022-12-08T16:59:48.607Z,3.35
2022-12-08T17:02:18.935Z,3.34
2022-12-08T17:04:49.142Z,3.30
2022-12-08T17:07:19.528Z,3.26
2022-12-08T17:09:49.992Z,3.26
2022-12-08T17:12:20.686Z,3.26
2022-12-08T17:14:51.420Z,3.25
2022-12-08T17:17:21.200Z,3.24
2022-12-08T17:19:51.199Z,3.23
2022-12-08T17:22:21.685Z,3.21
2022-12-08T17:24:52.582Z,3.20
2022-12-08T17:27:23.064Z,3.20
2022-12-08T17:29:53.349Z,3.20
2022-12-08T17:32:23.394Z,3.20
2022-12-08T17:34:53.617Z,3.21
2022-12-08T17:37:23.606Z,3.21
2022-12-08T17:39:53.709Z,3.20
2022-12-08T17:42:26.403Z,3.19
2022-12-08T17:44:56.526Z,3.17
2022-12-08T17:47:26.832Z,3.14
2022-12-08T17:49:57.060Z,3.13
2022-12-08T17:52:27.736Z,3.11
2022-12-08T17:54:57.922Z,3.08
2022-12-08T17:57:28.014Z,3.05
2022-12-08T17:59:57.084Z,3.05
2022-12-08T18:02:27.309Z,3.07
2022-12-08T18:04:57.093Z,3.10
2022-12-08T18:07:27.216Z,3.12
2022-12-08T18:09:57.387Z,3.11
2022-12-08T18:12:27.526Z,3.08
2022-12-08T18:14:56.617Z,3.06
2022-12-08T18:17:26.647Z,3.05
2022-12-08T18:19:57.127Z,3.04
2022-12-08T18:22:27.518Z,3.04
2022-12-08T18:25:00.664Z,3.03
2022-12-08T18:27:30.681Z,3.02
2022-12-08T18:30:02.381Z,3.02
2022-12-08T18:32:32.431Z,3.02
2022-12-08T18:35:02.711Z,3.04
2022-12-08T18:37:32.358Z,3.05
2022-12-08T18:40:02.609Z,3.05
2022-12-08T18:42:32.865Z,3.06
2022-12-08T18:45:07.545Z,3.07
2022-12-08T18:47:41.100Z,3.06
2022-12-08T18:50:13.121Z,3.06
2022-12-08T18:52:43.762Z,3.06
2022-12-08T18:55:15.039Z,3.04
2022-12-08T18:57:44.700Z,3.03
2022-12-08T19:00:19.065Z,3.02
2022-12-08T19:02:50.000Z,3.02
2022-12-08T19:05:20.844Z,3.05
2022-12-08T19:07:52.614Z,3.09
2022-12-08T19:10:21.742Z,3.12
2022-12-08T19:12:52.898Z,3.15
2022-12-08T19:15:23.225Z,3.16
2022-12-08T19:17:52.099Z,3.14
2022-12-08T19:20:22.163Z,3.13
2022-12-08T19:22:52.161Z,3.15
2022-12-08T19:25:22.479Z,3.17
2022-12-08T19:27:53.019Z,3.19
2022-12-08T19:30:23.123Z,3.22
2022-12-08T19:32:53.146Z,3.23
2022-12-08T19:35:23.231Z,3.22
2022-12-08T19:37:55.229Z,3.22
2022-12-08T19:40:46.378Z,3.23
2022-12-08T19:43:40.462Z,3.22
2022-12-08T19:46:11.910Z,3.21
2022-12-08T19:48:42.703Z,3.16
2022-12-08T19:51:13.260Z,3.07
2022-12-08T19:53:47.535Z,3.07
2022-12-08T19:56:19.324Z,3.07
2022-12-08T19:58:48.215Z,3.09
2022-12-08T20:01:20.322Z,3.11
2022-12-08T20:03:50.676Z,3.05
2022-12-08T20:06:21.344Z,2.92
2022-12-08T20:08:52.801Z,2.83
2022-12-08T20:11:23.993Z,2.84
2022-12-08T20:13:52.893Z,2.88
2022-12-08T20:16:24.635Z,2.93
2022-12-08T20:18:54.672Z,2.94
2022-12-08T20:21:24.859Z,2.96
2022-12-08T20:23:55.222Z,2.99
2022-12-08T20:26:25.792Z,3.02
2022-12-08T20:28:54.673Z,3.04
2022-12-08T20:31:28.067Z,3.06
2022-12-08T20:33:58.657Z,3.08
2022-12-08T20:36:29.449Z,3.10
2022-12-08T20:38:59.554Z,3.10
2022-12-08T20:41:30.456Z,3.13
2022-12-08T20:44:05.651Z,3.13
2022-12-08T20:46:36.137Z,3.10
2022-12-08T20:49:08.789Z,3.11
2022-12-08T20:51:39.239Z,3.13
2022-12-08T20:54:11.503Z,3.17
2022-12-08T20:56:47.929Z,3.19
2022-12-08T20:59:18.395Z,3.16
2022-12-08T21:01:49.671Z,3.15
2022-12-08T21:04:21.311Z,3.15
2022-12-08T21:06:51.550Z,3.16
2022-12-08T21:09:22.003Z,3.20
2022-12-08T21:11:52.577Z,3.23
2022-12-08T21:14:21.692Z,3.23
2022-12-08T21:16:55.111Z,3.23
2022-12-08T21:19:25.465Z,3.19
2022-12-08T21:21:56.142Z,3.09
2022-12-08T21:24:30.380Z,3.07
2022-12-08T21:27:04.861Z,3.04
2022-12-08T21:29:34.925Z,3.07
2022-12-08T21:32:05.233Z,3.07
2022-12-08T21:34:35.840Z,3.04
2022-12-08T21:37:06.469Z,3.04
2022-12-08T21:39:38.284Z,3.06
2022-12-08T21:42:33.712Z,3.07
2022-12-08T21:45:04.575Z,3.05
2022-12-08T21:47:34.133Z,3.04
2022-12-08T21:50:05.707Z,3.06
2022-12-08T21:52:43.995Z,3.02
2022-12-08T21:55:16.362Z,3.04
2022-12-08T21:57:47.119Z,3.06
2022-12-08T22:00:18.171Z,3.08
2022-12-08T22:02:48.466Z,3.11
2022-12-08T22:05:19.003Z,3.13
2022-12-08T22:07:51.376Z,3.13
2022-12-08T22:10:21.787Z,3.11
2022-12-08T22:12:51.994Z,3.11
2022-12-08T22:15:22.128Z,3.14
2022-12-08T22:17:51.295Z,3.14
2022-12-08T22:20:21.676Z,3.14
2022-12-08T22:22:51.244Z,3.15
2022-12-08T22:25:21.474Z,3.07
2022-12-08T22:27:51.697Z,2.99
2022-12-08T22:30:22.113Z,2.95
2022-12-08T22:32:52.990Z,2.97
2022-12-08T22:35:23.247Z,2.97
2022-12-08T22:37:53.533Z,3.00
2022-12-08T22:40:23.757Z,3.04
2022-12-08T22:42:54.237Z,3.08
2022-12-08T22:45:24.758Z,3.11
2022-12-08T22:47:55.065Z,3.04
2022-12-08T22:50:25.103Z,2.98
2022-12-08T22:52:55.142Z,2.93
2022-12-08T22:55:25.350Z,2.85
2022-12-08T22:57:55.882Z,2.76
2022-12-08T23:00:25.048Z,2.71
2022-12-08T23:02:55.280Z,2.70
2022-12-08T23:05:25.502Z,2.66
2022-12-08T23:07:55.736Z,2.67
2022-12-08T23:10:25.902Z,2.69
2022-12-08T23:13:02.178Z,2.71
2022-12-08T23:15:34.197Z,2.70
2022-12-08T23:18:05.009Z,2.64
2022-12-08T23:20:35.321Z,2.64
2022-12-08T23:23:05.846Z,2.62
2022-12-08T23:25:40.983Z,2.62
2022-12-08T23:28:11.425Z,2.63
2022-12-08T23:30:43.080Z,2.63
2022-12-08T23:33:15.361Z,2.64
2022-12-08T23:35:45.805Z,2.64
2022-12-08T23:38:16.412Z,2.65
2022-12-08T23:40:45.459Z,2.66
2022-12-08T23:43:16.465Z,2.64
2022-12-08T23:45:47.619Z,2.61
2022-12-08T23:48:18.090Z,2.59
2022-12-08T23:50:47.102Z,2.61
2022-12-08T23:53:17.593Z,2.62
2022-12-08T23:55:48.053Z,2.63
2022-12-08T23:58:18.290Z,2.64
